This is the latest recevied weather packets stored in our database for station/object SP9INZ-13. If no packets are shown the sender has not sent any weather packets the latest 10 day(s).
| Time | Temp. | Humidity | Pressure | Rain* | Wind** | Luminosity | Snow |
|---|---|---|---|---|---|---|---|
| 1777783689 | 14.44° C | 52% | 1024.4 hPa | - | - | - | - |
| 1777782730 | 13.89° C | 54% | 1024.2 hPa | - | - | - | - |
| 1777781773 | 13.33° C | 54% | 1024.2 hPa | - | - | - | - |
| 1777780815 | 12.78° C | 56% | 1024.3 hPa | - | - | - | - |
| 1777779857 | 12.78° C | 56% | 1024.1 hPa | - | - | - | - |
| 1777778937 | 12.22° C | 58% | 1024.3 hPa | - | - | - | - |
| 1777778900 | 12.22° C | 58% | 1024.3 hPa | - | - | - | - |
| 1777777974 | 12.22° C | 58% | 1024.1 hPa | - | - | - | - |
| 1777777941 | 12.22° C | 58% | 1024.1 hPa | - | - | - | - |
| 1777776984 | 12.22° C | 58% | 1024.2 hPa | - | - | - | - |
| 1777776025 | 12.22° C | 59% | 1024.2 hPa | - | - | - | - |
| 1777775068 | 12.78° C | 57% | 1024.2 hPa | - | - | - | - |
| 1777774111 | 12.78° C | 57% | 1024.2 hPa | - | - | - | - |
| 1777773152 | 12.78° C | 58% | 1024.3 hPa | - | - | - | - |
| 1777772194 | 12.78° C | 58% | 1024.5 hPa | - | - | - | - |
| 1777771235 | 12.22° C | 60% | 1024.7 hPa | - | - | - | - |
| 1777770278 | 12.78° C | 57% | 1024.7 hPa | - | - | - | - |
| 1777769320 | 13.33° C | 57% | 1024.7 hPa | - | - | - | - |
| 1777768362 | 12.78° C | 58% | 1024.8 hPa | - | - | - | - |
| 1777767403 | 12.78° C | 58% | 1024.9 hPa | - | - | - | - |
| 1777766445 | 12.78° C | 57% | 1024.9 hPa | - | - | - | - |
| 1777765487 | 13.33° C | 57% | 1025.2 hPa | - | - | - | - |
| 1777764529 | 13.89° C | 54% | 1025.1 hPa | - | - | - | - |
| 1777763571 | 13.89° C | 55% | 1025.3 hPa | - | - | - | - |
| 1777762613 | 13.89° C | 54% | 1025.4 hPa | - | - | - | - |
* Rain since midnight (hover to see other rain measurements)
** Current wind speed in m/s (hover to see current wind gust speed)